Erwinna, Pennsylvania
Current Conditions -  °F | °C
As of 6:54 AM on Thursday 29 Jan 2015 (Local Time) from KDYL Reporting Station
Clear Clear  
Wind Chill: -11°   Ceiling: Unl
Heat Index: -11°   Visibility: 10mi
Dew Point: -17°   Wind: 3mph
Humidity: 64%   Direction: 10°N
Pressure: 30.32"   Gusts: NA
Location:  40.5°N, 75.07°W
Report Text: KDYL 291154Z AUTO 01003KT 10SM CLR M11/M17 A3032 RMK AO2 SLP278 T11111167 11067 21128 53012
Loading
Personal Weather Stations






























Interactive Weather Map New forecast layout! Learn more

10-Day Weather Forecast

Advertisements
Track Severe Weather on mobile